sensor_id;sensor_type;location;lat;lon;timestamp;temperature;humidity
75387;DHT22;63966;47.914;22.266;2024-02-26T00:02:33;8.19;89.02
75387;DHT22;63966;47.914;22.266;2024-02-26T00:05:40;8.29;88.54
75387;DHT22;63966;47.914;22.266;2024-02-26T00:08:44;8.32;89.25
75387;DHT22;63966;47.914;22.266;2024-02-26T00:11:48;8.42;88.95
75387;DHT22;63966;47.914;22.266;2024-02-26T00:14:51;8.77;87.65
75387;DHT22;63966;47.914;22.266;2024-02-26T00:17:55;8.68;88.22
75387;DHT22;63966;47.914;22.266;2024-02-26T00:20:59;8.88;87.30
75387;DHT22;63966;47.914;22.266;2024-02-26T00:24:04;8.77;87.61
75387;DHT22;63966;47.914;22.266;2024-02-26T00:27:07;8.46;88.73
75387;DHT22;63966;47.914;22.266;2024-02-26T00:30:11;8.36;89.48
75387;DHT22;63966;47.914;22.266;2024-02-26T00:33:17;8.57;88.75
75387;DHT22;63966;47.914;22.266;2024-02-26T00:36:21;8.75;87.98
75387;DHT22;63966;47.914;22.266;2024-02-26T00:39:24;8.98;86.74
75387;DHT22;63966;47.914;22.266;2024-02-26T00:42:28;8.95;86.65
75387;DHT22;63966;47.914;22.266;2024-02-26T00:45:31;8.89;86.72
75387;DHT22;63966;47.914;22.266;2024-02-26T00:48:35;8.91;86.96
75387;DHT22;63966;47.914;22.266;2024-02-26T00:51:38;8.77;87.41
75387;DHT22;63966;47.914;22.266;2024-02-26T00:54:42;8.63;87.71
75387;DHT22;63966;47.914;22.266;2024-02-26T00:57:45;8.87;87.19
75387;DHT22;63966;47.914;22.266;2024-02-26T01:00:49;8.89;86.98
75387;DHT22;63966;47.914;22.266;2024-02-26T01:03:52;8.88;86.88
75387;DHT22;63966;47.914;22.266;2024-02-26T01:06:56;8.84;86.82
75387;DHT22;63966;47.914;22.266;2024-02-26T01:10:00;8.92;86.89
75387;DHT22;63966;47.914;22.266;2024-02-26T01:13:03;9.39;85.13
75387;DHT22;63966;47.914;22.266;2024-02-26T01:16:07;9.36;84.42
75387;DHT22;63966;47.914;22.266;2024-02-26T01:19:10;9.20;85.25
75387;DHT22;63966;47.914;22.266;2024-02-26T01:22:14;9.25;85.40
75387;DHT22;63966;47.914;22.266;2024-02-26T01:25:17;9.28;84.90
75387;DHT22;63966;47.914;22.266;2024-02-26T01:28:21;9.19;85.46
75387;DHT22;63966;47.914;22.266;2024-02-26T01:31:24;8.99;86.25
75387;DHT22;63966;47.914;22.266;2024-02-26T01:34:28;9.09;85.83
75387;DHT22;63966;47.914;22.266;2024-02-26T01:37:31;9.23;85.45
75387;DHT22;63966;47.914;22.266;2024-02-26T01:40:35;9.20;85.30
75387;DHT22;63966;47.914;22.266;2024-02-26T01:43:39;9.29;84.94
75387;DHT22;63966;47.914;22.266;2024-02-26T01:46:43;9.36;84.49
75387;DHT22;63966;47.914;22.266;2024-02-26T01:49:46;9.44;84.19
75387;DHT22;63966;47.914;22.266;2024-02-26T01:52:51;9.29;84.70
75387;DHT22;63966;47.914;22.266;2024-02-26T01:55:54;9.19;84.81
75387;DHT22;63966;47.914;22.266;2024-02-26T01:59:02;8.93;85.52
75387;DHT22;63966;47.914;22.266;2024-02-26T02:02:08;8.95;85.49
75387;DHT22;63966;47.914;22.266;2024-02-26T02:05:17;8.95;85.27
75387;DHT22;63966;47.914;22.266;2024-02-26T02:08:22;9.04;84.76
75387;DHT22;63966;47.914;22.266;2024-02-26T02:11:26;9.09;84.36
75387;DHT22;63966;47.914;22.266;2024-02-26T02:14:29;9.15;83.87
75387;DHT22;63966;47.914;22.266;2024-02-26T02:17:33;9.15;83.86
75387;DHT22;63966;47.914;22.266;2024-02-26T02:20:37;9.26;83.26
75387;DHT22;63966;47.914;22.266;2024-02-26T02:23:41;9.30;83.08
75387;DHT22;63966;47.914;22.266;2024-02-26T02:26:49;9.40;82.69
75387;DHT22;63966;47.914;22.266;2024-02-26T02:29:53;9.40;82.80
75387;DHT22;63966;47.914;22.266;2024-02-26T02:32:57;9.56;82.48
75387;DHT22;63966;47.914;22.266;2024-02-26T02:36:04;9.60;82.10
75387;DHT22;63966;47.914;22.266;2024-02-26T02:39:12;9.53;82.40
75387;DHT22;63966;47.914;22.266;2024-02-26T02:42:15;9.71;81.66
75387;DHT22;63966;47.914;22.266;2024-02-26T02:45:19;9.63;81.91
75387;DHT22;63966;47.914;22.266;2024-02-26T02:48:23;9.57;82.47
75387;DHT22;63966;47.914;22.266;2024-02-26T02:51:27;9.73;81.81
75387;DHT22;63966;47.914;22.266;2024-02-26T02:54:30;9.94;81.35
75387;DHT22;63966;47.914;22.266;2024-02-26T02:57:33;9.87;81.39
75387;DHT22;63966;47.914;22.266;2024-02-26T03:00:37;9.99;80.67
75387;DHT22;63966;47.914;22.266;2024-02-26T03:03:40;10.14;80.07
75387;DHT22;63966;47.914;22.266;2024-02-26T03:06:44;10.05;80.39
75387;DHT22;63966;47.914;22.266;2024-02-26T03:09:48;10.21;80.18
75387;DHT22;63966;47.914;22.266;2024-02-26T03:12:51;10.19;79.88
75387;DHT22;63966;47.914;22.266;2024-02-26T03:15:55;10.19;80.02
75387;DHT22;63966;47.914;22.266;2024-02-26T03:18:58;10.19;79.91
75387;DHT22;63966;47.914;22.266;2024-02-26T03:22:02;10.22;80.02
75387;DHT22;63966;47.914;22.266;2024-02-26T03:25:06;10.19;80.18
75387;DHT22;63966;47.914;22.266;2024-02-26T03:28:10;10.11;80.41
75387;DHT22;63966;47.914;22.266;2024-02-26T03:31:14;10.04;80.50
75387;DHT22;63966;47.914;22.266;2024-02-26T03:34:18;9.90;80.96
75387;DHT22;63966;47.914;22.266;2024-02-26T03:37:23;9.70;81.64
75387;DHT22;63966;47.914;22.266;2024-02-26T03:40:26;9.63;81.72
75387;DHT22;63966;47.914;22.266;2024-02-26T03:43:30;9.73;81.49
75387;DHT22;63966;47.914;22.266;2024-02-26T03:46:33;9.70;81.49
75387;DHT22;63966;47.914;22.266;2024-02-26T03:49:36;9.64;81.43
75387;DHT22;63966;47.914;22.266;2024-02-26T03:52:40;9.53;81.88
75387;DHT22;63966;47.914;22.266;2024-02-26T03:55:43;9.50;81.98
75387;DHT22;63966;47.914;22.266;2024-02-26T03:58:47;9.44;82.16
75387;DHT22;63966;47.914;22.266;2024-02-26T04:01:50;9.30;82.47
75387;DHT22;63966;47.914;22.266;2024-02-26T04:04:54;9.22;82.84
75387;DHT22;63966;47.914;22.266;2024-02-26T04:07:58;9.19;82.94
75387;DHT22;63966;47.914;22.266;2024-02-26T04:11:01;9.22;82.82
75387;DHT22;63966;47.914;22.266;2024-02-26T04:14:05;9.16;82.91
75387;DHT22;63966;47.914;22.266;2024-02-26T04:17:11;9.16;82.78
75387;DHT22;63966;47.914;22.266;2024-02-26T04:20:16;9.19;82.75
75387;DHT22;63966;47.914;22.266;2024-02-26T04:23:20;9.12;82.80
75387;DHT22;63966;47.914;22.266;2024-02-26T04:26:23;9.11;82.92
75387;DHT22;63966;47.914;22.266;2024-02-26T04:29:27;9.12;82.93
75387;DHT22;63966;47.914;22.266;2024-02-26T04:32:30;9.16;82.83
75387;DHT22;63966;47.914;22.266;2024-02-26T04:35:34;9.19;82.89
75387;DHT22;63966;47.914;22.266;2024-02-26T04:38:38;9.07;83.15
75387;DHT22;63966;47.914;22.266;2024-02-26T04:41:41;9.20;82.59
75387;DHT22;63966;47.914;22.266;2024-02-26T04:44:45;9.18;82.87
75387;DHT22;63966;47.914;22.266;2024-02-26T04:47:48;9.20;82.83
75387;DHT22;63966;47.914;22.266;2024-02-26T04:50:52;9.08;83.33
75387;DHT22;63966;47.914;22.266;2024-02-26T04:53:56;9.02;83.32
75387;DHT22;63966;47.914;22.266;2024-02-26T04:56:59;8.99;83.74
75387;DHT22;63966;47.914;22.266;2024-02-26T05:00:04;9.02;83.56
75387;DHT22;63966;47.914;22.266;2024-02-26T05:03:08;9.15;83.27
75387;DHT22;63966;47.914;22.266;2024-02-26T05:06:16;9.23;83.11
75387;DHT22;63966;47.914;22.266;2024-02-26T05:09:20;9.35;82.74
75387;DHT22;63966;47.914;22.266;2024-02-26T05:12:23;9.42;82.44
75387;DHT22;63966;47.914;22.266;2024-02-26T05:15:27;9.59;82.19
75387;DHT22;63966;47.914;22.266;2024-02-26T05:18:30;9.60;81.88
75387;DHT22;63966;47.914;22.266;2024-02-26T05:21:34;9.69;81.79
75387;DHT22;63966;47.914;22.266;2024-02-26T05:24:40;9.80;81.50
75387;DHT22;63966;47.914;22.266;2024-02-26T05:27:44;9.77;81.62
75387;DHT22;63966;47.914;22.266;2024-02-26T05:30:47;9.87;81.24
75387;DHT22;63966;47.914;22.266;2024-02-26T05:33:51;10.09;80.53
75387;DHT22;63966;47.914;22.266;2024-02-26T05:36:55;10.15;80.29
75387;DHT22;63966;47.914;22.266;2024-02-26T05:39:58;10.19;80.20
75387;DHT22;63966;47.914;22.266;2024-02-26T05:43:02;10.62;78.66
75387;DHT22;63966;47.914;22.266;2024-02-26T05:46:05;11.12;76.81
75387;DHT22;63966;47.914;22.266;2024-02-26T05:49:09;11.45;75.74
75387;DHT22;63966;47.914;22.266;2024-02-26T05:52:12;11.54;75.26
75387;DHT22;63966;47.914;22.266;2024-02-26T05:55:16;11.55;75.05
75387;DHT22;63966;47.914;22.266;2024-02-26T05:58:19;11.24;76.00
75387;DHT22;63966;47.914;22.266;2024-02-26T06:01:23;10.97;76.99
75387;DHT22;63966;47.914;22.266;2024-02-26T06:04:27;10.69;78.03
75387;DHT22;63966;47.914;22.266;2024-02-26T06:07:31;10.76;77.82
75387;DHT22;63966;47.914;22.266;2024-02-26T06:10:34;10.67;78.22
75387;DHT22;63966;47.914;22.266;2024-02-26T06:13:38;10.77;77.83
75387;DHT22;63966;47.914;22.266;2024-02-26T06:16:41;10.70;77.90
75387;DHT22;63966;47.914;22.266;2024-02-26T06:19:45;10.74;77.76
75387;DHT22;63966;47.914;22.266;2024-02-26T06:22:48;10.66;78.01
75387;DHT22;63966;47.914;22.266;2024-02-26T06:25:52;10.66;78.13
75387;DHT22;63966;47.914;22.266;2024-02-26T06:28:56;10.76;77.73
75387;DHT22;63966;47.914;22.266;2024-02-26T06:32:00;10.89;77.26
75387;DHT22;63966;47.914;22.266;2024-02-26T06:35:03;10.93;77.35
75387;DHT22;63966;47.914;22.266;2024-02-26T06:38:11;10.99;76.77
75387;DHT22;63966;47.914;22.266;2024-02-26T06:41:16;11.20;76.25
75387;DHT22;63966;47.914;22.266;2024-02-26T06:44:20;11.46;75.41
75387;DHT22;63966;47.914;22.266;2024-02-26T06:47:24;11.51;75.03
75387;DHT22;63966;47.914;22.266;2024-02-26T06:50:29;11.59;74.83
75387;DHT22;63966;47.914;22.266;2024-02-26T06:53:32;11.55;75.12
75387;DHT22;63966;47.914;22.266;2024-02-26T06:56:36;11.51;75.40
75387;DHT22;63966;47.914;22.266;2024-02-26T06:59:39;11.63;75.07
75387;DHT22;63966;47.914;22.266;2024-02-26T07:02:44;11.62;75.00
75387;DHT22;63966;47.914;22.266;2024-02-26T07:05:47;11.66;74.70
75387;DHT22;63966;47.914;22.266;2024-02-26T07:08:51;11.65;74.67
75387;DHT22;63966;47.914;22.266;2024-02-26T07:11:54;11.85;74.24
75387;DHT22;63966;47.914;22.266;2024-02-26T07:15:03;11.80;74.03
75387;DHT22;63966;47.914;22.266;2024-02-26T07:18:08;11.69;74.95
75387;DHT22;63966;47.914;22.266;2024-02-26T07:21:12;11.79;74.74
75387;DHT22;63966;47.914;22.266;2024-02-26T07:24:16;12.06;73.93
75387;DHT22;63966;47.914;22.266;2024-02-26T07:27:19;12.16;73.60
75387;DHT22;63966;47.914;22.266;2024-02-26T07:30:25;12.35;73.35
75387;DHT22;63966;47.914;22.266;2024-02-26T07:33:28;12.59;72.91
75387;DHT22;63966;47.914;22.266;2024-02-26T07:36:32;12.83;71.82
75387;DHT22;63966;47.914;22.266;2024-02-26T07:39:36;12.54;72.70
75387;DHT22;63966;47.914;22.266;2024-02-26T07:42:40;12.72;72.24
75387;DHT22;63966;47.914;22.266;2024-02-26T07:45:43;14.80;65.58
75387;DHT22;63966;47.914;22.266;2024-02-26T07:48:47;13.85;68.55
75387;DHT22;63966;47.914;22.266;2024-02-26T07:51:50;13.16;71.21
75387;DHT22;63966;47.914;22.266;2024-02-26T07:54:54;13.24;70.38
75387;DHT22;63966;47.914;22.266;2024-02-26T07:57:58;13.14;71.86
75387;DHT22;63966;47.914;22.266;2024-02-26T08:01:01;13.33;71.11
75387;DHT22;63966;47.914;22.266;2024-02-26T08:04:05;13.24;71.68
75387;DHT22;63966;47.914;22.266;2024-02-26T08:07:09;13.62;71.28
75387;DHT22;63966;47.914;22.266;2024-02-26T08:10:12;13.57;71.13
75387;DHT22;63966;47.914;22.266;2024-02-26T08:13:16;13.44;71.98
75387;DHT22;63966;47.914;22.266;2024-02-26T08:16:19;13.68;72.28
75387;DHT22;63966;47.914;22.266;2024-02-26T08:19:24;13.44;71.89
75387;DHT22;63966;47.914;22.266;2024-02-26T08:22:33;13.34;72.77
75387;DHT22;63966;47.914;22.266;2024-02-26T08:25:38;13.58;71.89
75387;DHT22;63966;47.914;22.266;2024-02-26T08:28:41;13.72;71.81
75387;DHT22;63966;47.914;22.266;2024-02-26T08:31:45;13.86;71.64
75387;DHT22;63966;47.914;22.266;2024-02-26T08:34:48;13.88;71.42
75387;DHT22;63966;47.914;22.266;2024-02-26T08:37:52;13.95;70.70
75387;DHT22;63966;47.914;22.266;2024-02-26T08:40:55;13.86;70.70
75387;DHT22;63966;47.914;22.266;2024-02-26T08:43:59;13.72;70.62
75387;DHT22;63966;47.914;22.266;2024-02-26T08:47:02;14.15;71.09
75387;DHT22;63966;47.914;22.266;2024-02-26T08:50:06;14.16;69.56
75387;DHT22;63966;47.914;22.266;2024-02-26T08:53:10;13.99;70.22
75387;DHT22;63966;47.914;22.266;2024-02-26T08:56:16;14.15;70.72
75387;DHT22;63966;47.914;22.266;2024-02-26T08:59:22;14.46;69.45
75387;DHT22;63966;47.914;22.266;2024-02-26T09:02:26;14.43;69.24
75387;DHT22;63966;47.914;22.266;2024-02-26T09:05:33;14.30;68.06
75387;DHT22;63966;47.914;22.266;2024-02-26T09:08:36;14.33;67.93
75387;DHT22;63966;47.914;22.266;2024-02-26T09:11:40;14.73;67.66
75387;DHT22;63966;47.914;22.266;2024-02-26T09:14:44;15.13;66.80
75387;DHT22;63966;47.914;22.266;2024-02-26T09:17:49;15.38;66.15
75387;DHT22;63966;47.914;22.266;2024-02-26T09:20:53;15.56;65.57
75387;DHT22;63966;47.914;22.266;2024-02-26T09:23:57;15.39;65.24
75387;DHT22;63966;47.914;22.266;2024-02-26T09:27:00;15.43;65.48
75387;DHT22;63966;47.914;22.266;2024-02-26T09:30:04;15.19;65.57
75387;DHT22;63966;47.914;22.266;2024-02-26T09:33:08;15.26;66.93
75387;DHT22;63966;47.914;22.266;2024-02-26T09:36:12;15.18;66.03
75387;DHT22;63966;47.914;22.266;2024-02-26T09:39:15;15.39;67.16
75387;DHT22;63966;47.914;22.266;2024-02-26T09:42:29;15.79;65.70
75387;DHT22;63966;47.914;22.266;2024-02-26T09:45:36;15.87;65.84
75387;DHT22;63966;47.914;22.266;2024-02-26T09:48:44;15.83;64.74
75387;DHT22;63966;47.914;22.266;2024-02-26T09:51:50;15.86;66.10
75387;DHT22;63966;47.914;22.266;2024-02-26T09:54:54;15.76;65.01
75387;DHT22;63966;47.914;22.266;2024-02-26T09:57:58;16.07;64.50
75387;DHT22;63966;47.914;22.266;2024-02-26T10:01:03;16.28;63.43
75387;DHT22;63966;47.914;22.266;2024-02-26T10:04:09;16.55;64.15
75387;DHT22;63966;47.914;22.266;2024-02-26T10:07:14;16.91;62.31
75387;DHT22;63966;47.914;22.266;2024-02-26T10:10:18;17.03;61.83
75387;DHT22;63966;47.914;22.266;2024-02-26T10:13:22;16.76;62.71
75387;DHT22;63966;47.914;22.266;2024-02-26T10:16:26;17.11;62.18
75387;DHT22;63966;47.914;22.266;2024-02-26T10:19:32;17.03;61.81
75387;DHT22;63966;47.914;22.266;2024-02-26T10:22:39;17.03;62.10
75387;DHT22;63966;47.914;22.266;2024-02-26T10:25:56;17.06;63.01
75387;DHT22;63966;47.914;22.266;2024-02-26T10:29:00;16.87;61.55
75387;DHT22;63966;47.914;22.266;2024-02-26T10:32:05;16.60;63.85
75387;DHT22;63966;47.914;22.266;2024-02-26T10:35:09;16.29;63.30
75387;DHT22;63966;47.914;22.266;2024-02-26T10:38:13;16.09;65.46
75387;DHT22;63966;47.914;22.266;2024-02-26T10:41:16;15.96;64.60
75387;DHT22;63966;47.914;22.266;2024-02-26T10:44:20;15.89;65.51
75387;DHT22;63966;47.914;22.266;2024-02-26T10:47:24;16.01;65.01
75387;DHT22;63966;47.914;22.266;2024-02-26T10:50:27;16.29;65.63
75387;DHT22;63966;47.914;22.266;2024-02-26T10:53:32;16.55;63.39
75387;DHT22;63966;47.914;22.266;2024-02-26T10:56:37;16.60;65.03
75387;DHT22;63966;47.914;22.266;2024-02-26T10:59:44;16.87;64.06
75387;DHT22;63966;47.914;22.266;2024-02-26T11:02:48;17.06;63.72
75387;DHT22;63966;47.914;22.266;2024-02-26T11:05:52;16.91;64.07
75387;DHT22;63966;47.914;22.266;2024-02-26T11:08:56;16.60;62.85
75387;DHT22;63966;47.914;22.266;2024-02-26T11:12:00;16.46;63.93
75387;DHT22;63966;47.914;22.266;2024-02-26T11:15:05;16.53;64.70
75387;DHT22;63966;47.914;22.266;2024-02-26T11:18:09;16.45;63.32
75387;DHT22;63966;47.914;22.266;2024-02-26T11:21:16;16.55;64.20
75387;DHT22;63966;47.914;22.266;2024-02-26T11:24:30;16.63;63.82
75387;DHT22;63966;47.914;22.266;2024-02-26T11:27:42;16.65;62.92
75387;DHT22;63966;47.914;22.266;2024-02-26T11:30:49;16.97;62.62
75387;DHT22;63966;47.914;22.266;2024-02-26T11:33:53;17.10;62.15
75387;DHT22;63966;47.914;22.266;2024-02-26T11:36:57;17.03;61.76
75387;DHT22;63966;47.914;22.266;2024-02-26T11:40:02;16.77;61.43
75387;DHT22;63966;47.914;22.266;2024-02-26T11:43:06;16.51;61.73
75387;DHT22;63966;47.914;22.266;2024-02-26T11:46:30;16.67;62.60
75387;DHT22;63966;47.914;22.266;2024-02-26T11:49:34;16.44;62.79
75387;DHT22;63966;47.914;22.266;2024-02-26T11:52:38;16.63;62.88
75387;DHT22;63966;47.914;22.266;2024-02-26T11:55:42;16.66;63.04
75387;DHT22;63966;47.914;22.266;2024-02-26T11:58:46;16.77;62.63
75387;DHT22;63966;47.914;22.266;2024-02-26T12:01:49;16.70;62.26
75387;DHT22;63966;47.914;22.266;2024-02-26T12:04:54;16.79;62.01
75387;DHT22;63966;47.914;22.266;2024-02-26T12:08:03;16.90;61.48
75387;DHT22;63966;47.914;22.266;2024-02-26T12:11:16;17.10;61.23
75387;DHT22;63966;47.914;22.266;2024-02-26T12:14:24;17.18;63.15
75387;DHT22;63966;47.914;22.266;2024-02-26T12:17:28;17.08;61.15
75387;DHT22;63966;47.914;22.266;2024-02-26T12:20:32;17.10;61.75
75387;DHT22;63966;47.914;22.266;2024-02-26T12:23:35;16.97;61.07
75387;DHT22;63966;47.914;22.266;2024-02-26T12:26:41;17.08;60.32
75387;DHT22;63966;47.914;22.266;2024-02-26T12:29:44;17.06;59.90
75387;DHT22;63966;47.914;22.266;2024-02-26T12:32:49;17.10;59.49
75387;DHT22;63966;47.914;22.266;2024-02-26T12:35:54;17.10;59.59
75387;DHT22;63966;47.914;22.266;2024-02-26T12:38:57;17.24;59.94
75387;DHT22;63966;47.914;22.266;2024-02-26T12:42:02;17.38;58.41
75387;DHT22;63966;47.914;22.266;2024-02-26T12:45:10;17.21;58.59
75387;DHT22;63966;47.914;22.266;2024-02-26T12:48:15;17.23;58.76
75387;DHT22;63966;47.914;22.266;2024-02-26T12:51:19;17.38;58.63
75387;DHT22;63966;47.914;22.266;2024-02-26T12:54:22;17.41;57.86
75387;DHT22;63966;47.914;22.266;2024-02-26T12:57:26;17.59;59.08
75387;DHT22;63966;47.914;22.266;2024-02-26T13:00:32;17.62;58.34
75387;DHT22;63966;47.914;22.266;2024-02-26T13:03:39;17.83;56.72
75387;DHT22;63966;47.914;22.266;2024-02-26T13:06:43;17.97;57.15
75387;DHT22;63966;47.914;22.266;2024-02-26T13:09:47;17.86;56.75
75387;DHT22;63966;47.914;22.266;2024-02-26T13:12:52;17.87;56.49
75387;DHT22;63966;47.914;22.266;2024-02-26T13:16:03;18.00;55.41
75387;DHT22;63966;47.914;22.266;2024-02-26T13:19:11;18.01;54.89
75387;DHT22;63966;47.914;22.266;2024-02-26T13:22:14;17.92;56.01
75387;DHT22;63966;47.914;22.266;2024-02-26T13:25:21;17.87;56.08
75387;DHT22;63966;47.914;22.266;2024-02-26T13:28:25;17.86;56.03
75387;DHT22;63966;47.914;22.266;2024-02-26T13:31:31;18.06;55.77
75387;DHT22;63966;47.914;22.266;2024-02-26T13:34:34;17.83;56.07
75387;DHT22;63966;47.914;22.266;2024-02-26T13:37:40;17.85;56.34
75387;DHT22;63966;47.914;22.266;2024-02-26T13:40:44;17.65;56.04
75387;DHT22;63966;47.914;22.266;2024-02-26T13:43:48;17.58;56.35
75387;DHT22;63966;47.914;22.266;2024-02-26T13:46:52;17.52;57.42
75387;DHT22;63966;47.914;22.266;2024-02-26T13:49:55;17.44;57.45
75387;DHT22;63966;47.914;22.266;2024-02-26T13:52:59;17.42;58.67
75387;DHT22;63966;47.914;22.266;2024-02-26T13:56:03;17.42;57.00
75387;DHT22;63966;47.914;22.266;2024-02-26T13:59:08;17.31;56.80
75387;DHT22;63966;47.914;22.266;2024-02-26T14:02:12;17.20;57.20
75387;DHT22;63966;47.914;22.266;2024-02-26T14:05:16;17.20;57.70
75387;DHT22;63966;47.914;22.266;2024-02-26T14:08:22;17.32;56.37
75387;DHT22;63966;47.914;22.266;2024-02-26T14:11:26;17.35;56.83
75387;DHT22;63966;47.914;22.266;2024-02-26T14:14:32;17.28;57.35
75387;DHT22;63966;47.914;22.266;2024-02-26T14:17:38;17.23;57.18
75387;DHT22;63966;47.914;22.266;2024-02-26T14:20:42;17.24;56.77
75387;DHT22;63966;47.914;22.266;2024-02-26T14:23:50;17.18;56.88
75387;DHT22;63966;47.914;22.266;2024-02-26T14:26:54;17.03;57.47
75387;DHT22;63966;47.914;22.266;2024-02-26T14:29:58;17.08;56.93
75387;DHT22;63966;47.914;22.266;2024-02-26T14:33:02;17.18;56.27
75387;DHT22;63966;47.914;22.266;2024-02-26T14:36:07;17.06;57.33
75387;DHT22;63966;47.914;22.266;2024-02-26T14:39:11;17.13;56.75
75387;DHT22;63966;47.914;22.266;2024-02-26T14:42:15;17.17;56.26
75387;DHT22;63966;47.914;22.266;2024-02-26T14:45:21;17.11;56.48
75387;DHT22;63966;47.914;22.266;2024-02-26T14:48:24;17.03;57.49
75387;DHT22;63966;47.914;22.266;2024-02-26T14:51:28;16.99;56.87
75387;DHT22;63966;47.914;22.266;2024-02-26T14:54:32;16.97;56.70
75387;DHT22;63966;47.914;22.266;2024-02-26T14:57:40;16.90;56.64
75387;DHT22;63966;47.914;22.266;2024-02-26T15:00:44;16.87;56.17
75387;DHT22;63966;47.914;22.266;2024-02-26T15:03:48;16.66;56.96
75387;DHT22;63966;47.914;22.266;2024-02-26T15:06:52;16.79;56.75
75387;DHT22;63966;47.914;22.266;2024-02-26T15:09:55;16.66;57.56
75387;DHT22;63966;47.914;22.266;2024-02-26T15:13:02;16.75;58.24
75387;DHT22;63966;47.914;22.266;2024-02-26T15:16:07;16.69;58.08
75387;DHT22;63966;47.914;22.266;2024-02-26T15:19:12;16.66;57.56
75387;DHT22;63966;47.914;22.266;2024-02-26T15:22:19;16.55;57.54
75387;DHT22;63966;47.914;22.266;2024-02-26T15:25:23;16.51;57.85
75387;DHT22;63966;47.914;22.266;2024-02-26T15:28:28;16.45;57.67
75387;DHT22;63966;47.914;22.266;2024-02-26T15:31:32;16.30;58.64
75387;DHT22;63966;47.914;22.266;2024-02-26T15:34:36;16.36;58.57
75387;DHT22;63966;47.914;22.266;2024-02-26T15:37:43;16.28;58.70
75387;DHT22;63966;47.914;22.266;2024-02-26T15:40:46;16.19;58.77
75387;DHT22;63966;47.914;22.266;2024-02-26T15:43:50;16.04;59.57
75387;DHT22;63966;47.914;22.266;2024-02-26T15:46:54;16.01;59.59
75387;DHT22;63966;47.914;22.266;2024-02-26T15:49:58;15.90;59.71
75387;DHT22;63966;47.914;22.266;2024-02-26T15:53:02;15.60;60.43
75387;DHT22;63966;47.914;22.266;2024-02-26T15:56:07;15.50;60.90
75387;DHT22;63966;47.914;22.266;2024-02-26T15:59:11;15.43;60.92
75387;DHT22;63966;47.914;22.266;2024-02-26T16:02:14;15.43;60.81
75387;DHT22;63966;47.914;22.266;2024-02-26T16:05:18;15.44;60.48
75387;DHT22;63966;47.914;22.266;2024-02-26T16:08:23;15.23;61.30
75387;DHT22;63966;47.914;22.266;2024-02-26T16:11:27;15.01;62.13
75387;DHT22;63966;47.914;22.266;2024-02-26T16:14:50;14.92;62.10
75387;DHT22;63966;47.914;22.266;2024-02-26T16:17:55;14.84;62.47
75387;DHT22;63966;47.914;22.266;2024-02-26T16:21:01;15.04;61.56
75387;DHT22;63966;47.914;22.266;2024-02-26T16:24:06;14.88;61.92
75387;DHT22;63966;47.914;22.266;2024-02-26T16:27:09;14.81;61.98
75387;DHT22;63966;47.914;22.266;2024-02-26T16:30:13;14.78;61.76
75387;DHT22;63966;47.914;22.266;2024-02-26T16:33:17;14.65;62.05
75387;DHT22;63966;47.914;22.266;2024-02-26T16:36:20;14.64;62.03
75387;DHT22;63966;47.914;22.266;2024-02-26T16:39:24;14.59;62.18
75387;DHT22;63966;47.914;22.266;2024-02-26T16:42:27;14.50;62.12
75387;DHT22;63966;47.914;22.266;2024-02-26T16:45:31;14.63;61.84
75387;DHT22;63966;47.914;22.266;2024-02-26T16:48:35;14.36;62.35
75387;DHT22;63966;47.914;22.266;2024-02-26T16:51:39;14.34;62.46
75387;DHT22;63966;47.914;22.266;2024-02-26T16:54:42;14.34;62.46
75387;DHT22;63966;47.914;22.266;2024-02-26T16:57:46;14.30;62.42
75387;DHT22;63966;47.914;22.266;2024-02-26T17:00:50;14.29;62.56
75387;DHT22;63966;47.914;22.266;2024-02-26T17:03:53;14.30;62.39
75387;DHT22;63966;47.914;22.266;2024-02-26T17:06:57;14.25;62.56
75387;DHT22;63966;47.914;22.266;2024-02-26T17:10:00;14.20;62.60
75387;DHT22;63966;47.914;22.266;2024-02-26T17:13:04;14.05;63.17
75387;DHT22;63966;47.914;22.266;2024-02-26T17:16:08;13.90;63.55
75387;DHT22;63966;47.914;22.266;2024-02-26T17:19:12;13.92;63.75
75387;DHT22;63966;47.914;22.266;2024-02-26T17:22:16;13.88;63.96
75387;DHT22;63966;47.914;22.266;2024-02-26T17:25:20;13.99;63.71
75387;DHT22;63966;47.914;22.266;2024-02-26T17:28:24;13.85;64.14
75387;DHT22;63966;47.914;22.266;2024-02-26T17:31:27;13.75;64.61
75387;DHT22;63966;47.914;22.266;2024-02-26T17:34:32;13.75;64.86
75387;DHT22;63966;47.914;22.266;2024-02-26T17:37:36;13.77;64.95
75387;DHT22;63966;47.914;22.266;2024-02-26T17:40:40;13.60;65.47
75387;DHT22;63966;47.914;22.266;2024-02-26T17:43:44;13.57;65.55
75387;DHT22;63966;47.914;22.266;2024-02-26T17:46:47;13.62;65.44
75387;DHT22;63966;47.914;22.266;2024-02-26T17:49:50;13.60;65.61
75387;DHT22;63966;47.914;22.266;2024-02-26T17:52:55;13.50;65.97
75387;DHT22;63966;47.914;22.266;2024-02-26T17:56:00;13.44;66.25
75387;DHT22;63966;47.914;22.266;2024-02-26T17:59:09;13.47;66.35
75387;DHT22;63966;47.914;22.266;2024-02-26T18:02:13;13.43;66.49
75387;DHT22;63966;47.914;22.266;2024-02-26T18:05:16;13.30;66.97
75387;DHT22;63966;47.914;22.266;2024-02-26T18:08:20;13.07;67.79
75387;DHT22;63966;47.914;22.266;2024-02-26T18:11:25;13.03;68.56
75387;DHT22;63966;47.914;22.266;2024-02-26T18:14:28;12.89;68.78
75387;DHT22;63966;47.914;22.266;2024-02-26T18:17:32;12.82;69.16
75387;DHT22;63966;47.914;22.266;2024-02-26T18:20:36;13.16;67.33
75387;DHT22;63966;47.914;22.266;2024-02-26T18:23:42;13.04;67.60
75387;DHT22;63966;47.914;22.266;2024-02-26T18:26:46;12.92;67.93
75387;DHT22;63966;47.914;22.266;2024-02-26T18:29:54;13.07;67.25
75387;DHT22;63966;47.914;22.266;2024-02-26T18:33:00;12.96;67.66
75387;DHT22;63966;47.914;22.266;2024-02-26T18:36:08;12.91;67.78
75387;DHT22;63966;47.914;22.266;2024-02-26T18:39:12;12.99;67.23
75387;DHT22;63966;47.914;22.266;2024-02-26T18:42:16;12.97;67.17
75387;DHT22;63966;47.914;22.266;2024-02-26T18:45:21;12.99;67.19
75387;DHT22;63966;47.914;22.266;2024-02-26T18:48:25;12.91;67.32
75387;DHT22;63966;47.914;22.266;2024-02-26T18:51:29;12.91;67.30
75387;DHT22;63966;47.914;22.266;2024-02-26T18:54:33;12.91;67.44
75387;DHT22;63966;47.914;22.266;2024-02-26T18:57:40;12.93;67.51
75387;DHT22;63966;47.914;22.266;2024-02-26T19:00:45;12.95;67.36
75387;DHT22;63966;47.914;22.266;2024-02-26T19:03:50;12.85;67.88
75387;DHT22;63966;47.914;22.266;2024-02-26T19:06:54;12.82;68.07
75387;DHT22;63966;47.914;22.266;2024-02-26T19:09:58;12.62;68.73
75387;DHT22;63966;47.914;22.266;2024-02-26T19:13:02;12.55;68.89